logo
Search for airport 
image banner adimage banner adimage banner ad
image banner ad

SCAU - Juan Enrique Bemstein

Located in Paine, Chile

ICAO - SCAU, IATA -

Data provided by Airmate  

General information

Coordinates: S33°53'37" W70°53'8"
Elevation is 1263 feet MSL.
Magnetic variation is 2° East
View others Airports in Santiago Metropolitan Region

Operational data

Special qualification required
Current time UTC:
Current local time:
Weather at : SCRG - La Independencia ( 33 km )
METAR: SCRG 231700Z 00000KT 1600 BR BKN005 OVC008 08/08 Q1024
View NOTAMs / SUP AIP / TFR affecting this airport [VIEW]
Communications frequencies: [VIEW]

Runways:

RWY identifierQFULength (ft)Width (ft)SurfaceLDA (ft)
18186°195050DIRT
36195050DIRT

Airport contact information

Address: Paine Chile

Satellite view of SCAU